Time;durP1;ratioP1;P1;durP2;ratioP2;P2;SDS_P1;SDS_P2;PMS_P1;PMS_P2;Temp;Humidity;BMP_temperature;BMP_pressure;BME280_temperature;BME280_humidity;BME280_pressure;Samples;Min_cycle;Max_cycle;Signal;HPM_P1;HPM_P2
2021/06/09 00:00:23;;;;;;;4.40;2.28;;;;;;;-143.98;100.00;68091.63;5042836;28;20083;-84
2021/06/09 00:02:57;;;;;;;4.75;2.28;;;;;;;-143.98;100.00;68091.63;5027151;28;20151;-84
2021/06/09 00:05:24;;;;;;;4.28;2.45;;;;;;;-143.98;100.00;68091.63;5023304;28;20060;-83
2021/06/09 00:07:50;;;;;;;4.30;2.60;;;;;;;-143.98;100.00;68091.63;5022726;28;20057;-83
2021/06/09 00:10:18;;;;;;;5.45;2.78;;;;;;;-143.98;100.00;68091.63;5022928;28;20063;-84
2021/06/09 00:12:45;;;;;;;5.80;2.60;;;;;;;-143.98;100.00;68091.63;5023216;28;20080;-84
2021/06/09 00:15:13;;;;;;;2.65;2.45;;;;;;;-143.98;100.00;68091.63;5023727;28;20061;-83
2021/06/09 00:18:08;;;;;;;5.10;2.25;;;;;;;-143.98;100.00;68091.63;5027489;28;20373;-83
2021/06/09 00:20:35;;;;;;;2.65;2.35;;;;;;;-143.98;100.00;68091.63;5060672;28;20057;-83
2021/06/09 00:23:03;;;;;;;2.83;2.50;;;;;;;-143.98;100.00;68091.63;5059303;28;20063;-83
2021/06/09 00:25:30;;;;;;;4.18;3.13;;;;;;;-143.98;100.00;68091.63;5026020;28;20086;-83
2021/06/09 00:28:00;;;;;;;4.07;2.47;;;;;;;-143.98;100.00;68091.63;5060018;28;20064;-84
2021/06/09 00:30:30;;;;;;;3.60;2.40;;;;;;;-143.98;100.00;68091.63;5022788;28;20064;-83
2021/06/09 00:32:58;;;;;;;3.55;2.80;;;;;;;-143.98;100.00;68091.63;5022486;28;20053;-83
2021/06/09 00:35:25;;;;;;;4.28;2.85;;;;;;;-143.98;100.00;68091.63;5008323;28;20359;-83
2021/06/09 00:37:52;;;;;;;5.53;2.67;;;;;;;-143.98;100.00;68091.63;5023929;28;20045;-83
2021/06/09 00:40:18;;;;;;;4.03;2.88;;;;;;;-143.98;100.00;68091.63;5024771;28;20066;-84
2021/06/09 00:43:29;;;;;;;4.68;3.08;;;;;;;-143.98;100.00;68091.63;5022852;28;20046;-83
2021/06/09 00:46:04;;;;;;;4.60;2.58;;;;;;;-143.98;100.00;68091.63;5040793;28;20103;-84
2021/06/09 00:48:32;;;;;;;4.05;3.00;;;;;;;-143.98;100.00;68091.63;5005622;28;20055;-85
2021/06/09 00:51:25;;;;;;;3.28;2.58;;;;;;;-143.98;100.00;68091.63;5013094;28;20447;-84
2021/06/09 00:53:58;;;;;;;6.18;3.35;;;;;;;-143.98;100.00;68091.63;5006645;28;20068;-83
2021/06/09 00:56:25;;;;;;;3.92;3.53;;;;;;;-143.98;100.00;68091.63;5022620;28;20060;-84
2021/06/09 00:58:56;;;;;;;4.53;2.78;;;;;;;-143.98;100.00;68091.63;5041736;28;20193;-84
2021/06/09 01:01:25;;;;;;;5.32;3.67;;;;;;;-143.98;100.00;68091.63;5041858;28;20060;-84
2021/06/09 01:03:52;;;;;;;4.47;2.88;;;;;;;-143.98;100.00;68091.63;5025712;28;20103;-84
2021/06/09 01:06:25;;;;;;;4.22;3.47;;;;;;;-143.98;100.00;68091.63;5027437;28;20045;-84
2021/06/09 01:08:53;;;;;;;6.13;3.30;;;;;;;-143.98;100.00;68091.63;5038879;28;20053;-83
2021/06/09 01:11:25;;;;;;;4.57;3.08;;;;;;;-143.98;100.00;68091.63;5041382;28;20037;-83
2021/06/09 01:13:52;;;;;;;3.70;2.78;;;;;;;-143.98;100.00;68091.63;5029408;28;20102;-83
2021/06/09 01:16:20;;;;;;;3.17;2.88;;;;;;;-143.98;100.00;68091.63;5025596;28;20386;-84
2021/06/09 01:18:47;;;;;;;4.30;3.10;;;;;;;-143.98;100.00;68091.63;5041284;28;20045;-84
2021/06/09 01:21:32;;;;;;;6.72;3.60;;;;;;;-143.98;100.00;68091.63;5043293;28;20053;-84
2021/06/09 01:24:00;;;;;;;4.38;3.75;;;;;;;-143.98;100.00;68091.63;5043211;28;20138;-84
2021/06/09 01:26:28;;;;;;;5.10;3.60;;;;;;;-143.98;100.00;68091.63;5059084;28;20059;-84
2021/06/09 01:29:02;;;;;;;4.22;3.83;;;;;;;-143.98;100.00;68091.63;5042056;28;20061;-84
2021/06/09 01:31:29;;;;;;;5.50;3.80;;;;;;;-143.98;100.00;68091.63;5041832;28;20060;-82
2021/06/09 01:33:58;;;;;;;7.82;3.38;;;;;;;-143.98;100.00;68091.63;5024976;28;20053;-82
2021/06/09 01:36:25;;;;;;;4.07;3.65;;;;;;;-143.98;100.00;68091.63;5041933;28;20049;-82
2021/06/09 01:38:52;;;;;;;4.80;3.78;;;;;;;-143.98;100.00;68091.63;5011248;28;20080;-83
2021/06/09 01:41:25;;;;;;;4.15;3.35;;;;;;;-143.98;100.00;68091.63;5037225;28;20063;-83
2021/06/09 01:43:53;;;;;;;4.55;3.50;;;;;;;-143.98;100.00;68091.63;5006376;28;20505;-82
2021/06/09 01:46:20;;;;;;;4.43;3.80;;;;;;;-143.98;100.00;68091.63;5008759;28;20434;-83
2021/06/09 01:48:52;;;;;;;4.72;3.63;;;;;;;-143.98;100.00;68091.63;5010824;28;20072;-83
2021/06/09 01:51:28;;;;;;;4.13;3.58;;;;;;;-143.98;100.00;68091.63;5041274;28;20158;-83
2021/06/09 01:53:55;;;;;;;;;;;;;;;-143.98;100.00;68091.63;5010128;28;20115;-83
2021/06/09 01:56:22;;;;;;;4.35;3.95;;;;;;;-143.98;100.00;68091.63;5013711;28;20173;-84
2021/06/09 01:58:49;;;;;;;5.05;3.80;;;;;;;-143.98;100.00;68091.63;5029261;28;20060;-83
2021/06/09 02:01:16;;;;;;;4.05;3.30;;;;;;;-143.98;100.00;68091.63;5022771;28;20058;-83
2021/06/09 02:03:43;;;;;;;7.57;4.05;;;;;;;-143.98;100.00;68091.63;5022268;28;20527;-83
2021/06/09 02:06:17;;;;;;;4.63;4.18;;;;;;;-143.98;100.00;68091.63;5005726;28;20116;-83
2021/06/09 02:08:44;;;;;;;4.13;3.25;;;;;;;-143.98;100.00;68091.63;5022006;28;20054;-83
2021/06/09 02:11:13;;;;;;;5.47;3.80;;;;;;;-143.98;100.00;68091.63;5022078;28;20053;-83
2021/06/09 02:13:46;;;;;;;4.25;3.40;;;;;;;-143.98;100.00;68091.63;5005339;28;20253;-83
2021/06/09 02:16:13;;;;;;;4.60;3.58;;;;;;;-143.98;100.00;68091.63;5021994;28;20069;-83
2021/06/09 02:18:40;;;;;;;5.80;3.78;;;;;;;-143.98;100.00;68091.63;5005975;28;20285;-83
2021/06/09 02:21:08;;;;;;;6.55;3.20;;;;;;;-143.98;100.00;68091.63;5022688;28;20061;-83
2021/06/09 02:23:35;;;;;;;4.20;3.28;;;;;;;-143.98;100.00;68091.63;5022832;28;20049;-83
2021/06/09 02:26:02;;;;;;;5.10;3.30;;;;;;;-143.98;100.00;68091.63;5021488;28;20050;-83
2021/06/09 02:28:31;;;;;;;5.53;3.95;;;;;;;-143.98;100.00;68091.63;5005652;28;20062;-84
2021/06/09 02:30:58;;;;;;;4.10;3.70;;;;;;;-143.98;100.00;68091.63;5022245;28;20057;-83
2021/06/09 02:33:34;;;;;;;5.55;3.97;;;;;;;-143.98;100.00;68091.63;5023878;28;20320;-84
2021/06/09 02:36:01;;;;;;;6.13;4.07;;;;;;;-143.98;100.00;68091.63;5023312;28;20046;-83
2021/06/09 02:38:28;;;;;;;5.30;4.03;;;;;;;-143.98;100.00;68091.63;5005807;28;20053;-84
2021/06/09 02:40:57;;;;;;;6.60;4.13;;;;;;;-143.98;100.00;68091.63;5006362;28;20050;-83
2021/06/09 02:43:30;;;;;;;7.38;4.70;;;;;;;-143.98;100.00;68091.63;5006511;28;20050;-83
2021/06/09 02:46:03;;;;;;;4.93;4.07;;;;;;;-143.98;100.00;68091.63;5007097;28;20050;-84
2021/06/09 02:48:32;;;;;;;6.45;4.63;;;;;;;-143.98;100.00;68091.63;5005366;28;20053;-83
2021/06/09 02:51:03;;;;;;;5.85;3.72;;;;;;;-143.98;100.00;68091.63;5022190;28;20123;-82
2021/06/09 02:53:35;;;;;;;11.45;4.43;;;;;;;-143.98;100.00;68091.63;5021482;28;20120;-83
2021/06/09 02:56:25;;;;;;;7.28;4.32;;;;;;;-143.98;100.00;68091.63;5021254;28;20061;-82
2021/06/09 02:59:10;;;;;;;4.90;4.40;;;;;;;-143.98;100.00;68091.63;5004138;28;20080;-83
2021/06/09 03:01:50;;;;;;;4.72;4.20;;;;;;;-143.98;100.00;68091.63;5034767;28;20406;-83
2021/06/09 03:05:06;;;;;;;4.10;3.70;;;;;;;-143.98;100.00;68091.63;5023715;28;20124;-83
2021/06/09 03:07:49;;;;;;;7.60;4.63;;;;;;;-143.98;100.00;68091.63;5046111;28;20059;-84
2021/06/09 03:10:27;;;;;;;6.32;4.35;;;;;;;-143.98;100.00;68091.63;5027377;28;20125;-83
2021/06/09 03:13:08;;;;;;;4.13;3.63;;;;;;;-143.98;100.00;68091.63;5028917;28;20063;-82
2021/06/09 03:16:07;;;;;;;4.50;4.00;;;;;;;-143.98;100.00;68091.63;5045671;28;20063;-83
2021/06/09 03:18:40;;;;;;;7.45;5.30;;;;;;;-143.98;100.00;68091.63;5046432;28;20049;-84
2021/06/09 03:21:48;;;;;;;8.85;5.75;;;;;;;-143.98;100.00;68091.63;5043863;28;20113;-83
2021/06/09 03:24:20;;;;;;;9.13;5.38;;;;;;;-143.98;100.00;68091.63;5042283;28;20049;-83
2021/06/09 03:26:53;;;;;;;8.57;4.90;;;;;;;-143.98;100.00;68091.63;5058742;28;20052;-83
2021/06/09 03:29:31;;;;;;;6.93;5.47;;;;;;;-143.98;100.00;68091.63;5026141;28;20088;-84
2021/06/09 03:32:02;;;;;;;8.43;5.80;;;;;;;-143.98;100.00;68091.63;5025955;28;20076;-83
2021/06/09 03:34:34;;;;;;;8.48;5.28;;;;;;;-143.98;100.00;68091.63;5041828;28;20060;-83
2021/06/09 03:37:08;;;;;;;9.02;5.40;;;;;;;-143.98;100.00;68091.63;5042625;28;20049;-84
2021/06/09 03:39:35;;;;;;;6.15;4.80;;;;;;;-143.98;100.00;68091.63;5043513;28;20060;-86
2021/06/09 03:42:02;;;;;;;11.30;5.55;;;;;;;-143.98;100.00;68091.63;5046130;28;20079;-83
2021/06/09 03:44:35;;;;;;;7.07;5.75;;;;;;;-143.98;100.00;68091.63;5034888;28;20053;-84
2021/06/09 03:47:03;;;;;;;8.43;5.57;;;;;;;-143.98;100.00;68091.63;5043169;28;20061;-84
2021/06/09 03:49:30;;;;;;;6.57;5.68;;;;;;;-143.98;100.00;68091.63;5042859;28;20049;-84
2021/06/09 03:51:58;;;;;;;7.93;5.80;;;;;;;-143.98;100.00;68091.63;5025566;28;20053;-84
2021/06/09 03:54:29;;;;;;;7.55;6.47;;;;;;;-143.98;100.00;68091.63;5040992;28;20053;-84
2021/06/09 03:56:57;;;;;;;9.43;6.43;;;;;;;-143.98;100.00;68091.63;5023257;28;20056;-83
2021/06/09 03:59:24;;;;;;;10.63;6.68;;;;;;;-143.98;100.00;68091.63;5042121;28;20053;-84
2021/06/09 04:01:52;;;;;;;6.55;5.45;;;;;;;-143.98;100.00;68091.63;5003115;28;20057;-84
2021/06/09 04:04:20;;;;;;;11.23;5.93;;;;;;;-143.98;100.00;68091.63;5020007;28;20061;-84
2021/06/09 04:06:52;;;;;;;9.23;5.72;;;;;;;-143.98;100.00;68091.63;5022674;28;20050;-84
2021/06/09 04:09:21;;;;;;;9.82;5.75;;;;;;;-143.98;100.00;68091.63;5022206;28;20061;-84
2021/06/09 04:11:52;;;;;;;8.18;5.30;;;;;;;-143.98;100.00;68091.63;5021339;28;20415;-84
2021/06/09 04:14:24;;;;;;;8.23;5.63;;;;;;;-143.98;100.00;68091.63;5037762;28;20323;-84
2021/06/09 04:16:53;;;;;;;9.38;5.18;;;;;;;-143.98;100.00;68091.63;5038963;28;20053;-83
2021/06/09 04:19:24;;;;;;;8.90;6.20;;;;;;;-143.98;100.00;68091.63;5023348;28;20478;-85
2021/06/09 04:21:51;;;;;;;6.70;4.93;;;;;;;-143.98;100.00;68091.63;5024427;28;20053;-83
2021/06/09 04:24:19;;;;;;;6.72;5.65;;;;;;;-143.98;100.00;68091.63;5015080;28;20049;-86
2021/06/09 04:26:52;;;;;;;7.35;5.47;;;;;;;-143.98;100.00;68091.63;4999209;28;20050;-83
2021/06/09 04:29:21;;;;;;;7.45;5.03;;;;;;;-143.98;100.00;68091.63;5005628;28;20329;-84
2021/06/09 04:31:54;;;;;;;6.78;5.50;;;;;;;-143.98;100.00;68091.63;5014806;28;20034;-84
2021/06/09 04:34:21;;;;;;;8.82;5.50;;;;;;;-143.98;100.00;68091.63;5016245;28;20064;-84
2021/06/09 04:36:52;;;;;;;7.93;5.15;;;;;;;-143.98;100.00;68091.63;5005459;28;20103;-84
2021/06/09 04:39:23;;;;;;;6.00;5.40;;;;;;;-143.98;100.00;68091.63;5019242;28;20124;-83
2021/06/09 04:41:52;;;;;;;5.68;4.80;;;;;;;-143.98;100.00;68091.63;5002259;28;20347;-84
2021/06/09 04:44:18;;;;;;;5.40;4.55;;;;;;;-143.98;100.00;68091.63;5016678;28;20136;-84
2021/06/09 04:46:45;;;;;;;7.32;4.75;;;;;;;-143.98;100.00;68091.63;5017197;28;20058;-84
2021/06/09 04:49:38;;;;;;;6.90;4.85;;;;;;;-143.98;100.00;68091.63;5015798;28;20054;-86
2021/06/09 04:52:06;;;;;;;6.80;5.05;;;;;;;-143.98;100.00;68091.63;5015884;28;20050;-83
2021/06/09 04:54:34;;;;;;;6.90;5.70;;;;;;;-143.98;100.00;68091.63;5016678;28;20321;-84
2021/06/09 04:57:03;;;;;;;7.00;5.57;;;;;;;-143.98;100.00;68091.63;5000230;28;20443;-84
2021/06/09 04:59:30;;;;;;;8.95;5.10;;;;;;;-143.98;100.00;68091.63;5014959;28;20057;-84
2021/06/09 05:01:57;;;;;;;7.65;5.15;;;;;;;-143.98;100.00;68091.63;4998737;28;20065;-84
2021/06/09 05:04:36;;;;;;;7.30;4.80;;;;;;;-143.98;100.00;68091.63;5000824;28;20050;-83
2021/06/09 05:07:03;;;;;;;7.63;5.15;;;;;;;-143.98;100.00;68091.63;4999479;28;20049;-83
2021/06/09 05:09:30;;;;;;;5.93;5.32;;;;;;;-143.98;100.00;68091.63;5013705;28;20049;-83
2021/06/09 05:12:16;;;;;;;6.90;4.97;;;;;;;-143.98;100.00;68091.63;5017204;28;20044;-84
2021/06/09 05:14:53;;;;;;;12.32;5.72;;;;;;;-143.98;100.00;68091.63;4997516;28;20077;-84
2021/06/09 05:17:30;;;;;;;10.07;4.78;;;;;;;-143.98;100.00;68091.63;4993033;28;20109;-84
2021/06/09 05:19:58;;;;;;;8.80;5.35;;;;;;;-143.98;100.00;68091.63;4994334;28;20069;-83
2021/06/09 05:22:34;;;;;;;8.27;5.50;;;;;;;-143.98;100.00;68091.63;4978675;28;20050;-84
2021/06/09 05:25:03;;;;;;;9.10;5.90;;;;;;;-143.98;100.00;68091.63;4993984;28;20057;-84
2021/06/09 05:27:31;;;;;;;10.07;6.22;;;;;;;-143.98;100.00;68091.63;4992863;28;20346;-84
2021/06/09 05:29:58;;;;;;;6.32;5.43;;;;;;;-143.98;100.00;68091.63;4995005;28;20054;-84
2021/06/09 05:32:54;;;;;;;6.57;5.30;;;;;;;-143.98;100.00;68091.63;4995560;28;20718;-84
2021/06/09 05:35:22;;;;;;;7.68;5.75;;;;;;;-143.98;100.00;68091.63;4997082;28;20057;-84
2021/06/09 05:37:49;;;;;;;7.45;5.95;;;;;;;-143.98;100.00;68091.63;5014308;28;20050;-83
2021/06/09 05:40:26;;;;;;;12.77;5.78;;;;;;;-143.98;100.00;68091.63;5012558;28;20058;-83
2021/06/09 05:42:53;;;;;;;11.27;5.40;;;;;;;-143.98;100.00;68091.63;4999300;28;20080;-84
2021/06/09 05:45:29;;;;;;;7.55;6.05;;;;;;;-143.98;100.00;68091.63;4997837;28;20060;-85
2021/06/09 05:47:57;;;;;;;8.57;5.95;;;;;;;-143.98;100.00;68091.63;5009429;28;20058;-83
2021/06/09 05:50:25;;;;;;;10.35;5.72;;;;;;;-143.98;100.00;68091.63;4993101;28;20436;-83
2021/06/09 05:52:55;;;;;;;9.68;5.88;;;;;;;-143.98;100.00;68091.63;4993018;28;20058;-84
2021/06/09 05:55:25;;;;;;;12.88;5.65;;;;;;;-143.98;100.00;68091.63;5008337;28;20116;-85
2021/06/09 05:57:53;;;;;;;11.73;5.30;;;;;;;-143.98;100.00;68091.63;4994984;28;20050;-84
2021/06/09 06:00:23;;;;;;;7.35;5.53;;;;;;;-143.98;100.00;68091.63;4999240;28;20058;-84
2021/06/09 06:02:51;;;;;;;8.05;5.20;;;;;;;-143.98;100.00;68091.63;5035964;28;20049;-84
2021/06/09 06:05:20;;;;;;;8.80;5.03;;;;;;;-143.98;100.00;68091.63;5017887;28;20209;-84
2021/06/09 06:07:50;;;;;;;9.02;5.82;;;;;;;-143.98;100.00;68091.63;5031865;28;20045;-84
2021/06/09 06:10:20;;;;;;;13.77;5.07;;;;;;;-143.98;100.00;68091.63;5013954;28;20137;-84
2021/06/09 06:12:55;;;;;;;10.68;5.50;;;;;;;-143.98;100.00;68091.63;5015480;28;20060;-84
2021/06/09 06:15:23;;;;;;;10.18;5.18;;;;;;;-143.98;100.00;68091.63;5014882;28;20072;-85
2021/06/09 06:17:50;;;;;;;7.22;4.97;;;;;;;-143.98;100.00;68091.63;5031262;28;20055;-85
2021/06/09 06:20:25;;;;;;;6.18;5.57;;;;;;;-143.98;100.00;68091.63;5015769;28;20049;-83
2021/06/09 06:22:52;;;;;;;10.32;5.68;;;;;;;-143.98;100.00;68091.63;5015970;28;20053;-84
2021/06/09 06:25:23;;;;;;;9.68;5.47;;;;;;;-143.98;100.00;68091.63;5032236;28;20064;-84
2021/06/09 06:27:52;;;;;;;11.05;5.00;;;;;;;-143.98;100.00;68091.63;5049246;28;20069;-84
2021/06/09 06:30:22;;;;;;;11.48;5.55;;;;;;;-143.98;100.00;68091.63;5014513;28;20107;-83
2021/06/09 06:32:54;;;;;;;11.57;4.85;;;;;;;-143.98;100.00;68091.63;5038702;28;20279;-84
2021/06/09 06:35:24;;;;;;;8.90;4.72;;;;;;;-143.98;100.00;68091.63;5026625;28;20103;-83
2021/06/09 06:37:57;;;;;;;8.93;4.93;;;;;;;-143.98;100.00;68091.63;5046467;28;20098;-84
2021/06/09 06:40:27;;;;;;;12.82;4.60;;;;;;;-143.98;100.00;68091.63;5027829;28;20180;-84
2021/06/09 06:42:56;;;;;;;8.68;4.85;;;;;;;-143.98;100.00;68091.63;5023071;28;20083;-84
2021/06/09 06:45:27;;;;;;;6.93;4.88;;;;;;;-143.98;100.00;68091.63;5040440;28;20049;-85
2021/06/09 06:47:55;;;;;;;5.55;4.45;;;;;;;-143.98;100.00;68091.63;5040254;28;20081;-84
2021/06/09 06:50:24;;;;;;;10.57;4.88;;;;;;;-143.98;100.00;68091.63;5025809;28;20112;-83
2021/06/09 06:52:57;;;;;;;7.15;4.18;;;;;;;-143.98;100.00;68091.63;5040288;28;20052;-84
2021/06/09 06:55:25;;;;;;;7.95;4.80;;;;;;;-143.98;100.00;68091.63;5038267;28;20060;-84
2021/06/09 06:57:54;;;;;;;7.50;4.90;;;;;;;-143.98;100.00;68091.63;5057014;28;20057;-85
2021/06/09 07:00:23;;;;;;;8.98;5.25;;;;;;;-143.98;100.00;68091.63;5038744;28;20275;-85
2021/06/09 07:03:01;;;;;;;9.68;4.72;;;;;;;-143.98;100.00;68091.63;5058395;28;20481;-84
2021/06/09 07:05:35;;;;;;;9.75;4.70;;;;;;;-143.98;100.00;68091.63;5040638;28;20045;-85
2021/06/09 07:08:03;;;;;;;6.65;4.85;;;;;;;-143.98;100.00;68091.63;5040225;28;20061;-85
2021/06/09 07:10:31;;;;;;;7.35;4.97;;;;;;;-143.98;100.00;68091.63;5025390;28;20173;-84
2021/06/09 07:12:59;;;;;;;11.82;4.82;;;;;;;-143.98;100.00;68091.63;5038371;28;20218;-85
2021/06/09 07:15:27;;;;;;;8.48;4.78;;;;;;;-143.98;100.00;68091.63;5038091;28;20056;-84
2021/06/09 07:17:59;;;;;;;6.57;4.50;;;;;;;-143.98;100.00;68091.63;5012667;28;20320;-84
2021/06/09 07:20:28;;;;;;;9.13;4.30;;;;;;;-143.98;100.00;68091.63;5025092;28;20055;-83
2021/06/09 07:22:59;;;;;;;10.70;4.90;;;;;;;-143.98;100.00;68091.63;5023534;28;20067;-84
2021/06/09 07:25:28;;;;;;;9.10;4.00;;;;;;;-143.98;100.00;68091.63;5025756;28;20060;-84
2021/06/09 07:28:05;;;;;;;9.10;4.43;;;;;;;-143.98;100.00;68091.63;5024049;28;20049;-84
2021/06/09 07:30:35;;;;;;;9.75;4.57;;;;;;;-143.98;100.00;68091.63;5038098;28;20061;-85
2021/06/09 07:33:09;;;;;;;6.25;4.10;;;;;;;-143.98;100.00;68091.63;5022784;28;20053;-85
2021/06/09 07:35:36;;;;;;;13.23;4.75;;;;;;;-143.98;100.00;68091.63;5041275;28;20285;-84
2021/06/09 07:38:22;;;;;;;9.30;4.68;;;;;;;-143.98;100.00;68091.63;5027810;28;20049;-84
2021/06/09 07:41:00;;;;;;;9.02;4.40;;;;;;;-143.98;100.00;68091.63;5042760;28;20099;-84
2021/06/09 07:43:34;;;;;;;5.00;3.85;;;;;;;-143.98;100.00;68091.63;5041852;28;20048;-84
2021/06/09 07:46:01;;;;;;;7.85;4.97;;;;;;;-143.98;100.00;68091.63;5044171;28;20076;-85
2021/06/09 07:48:32;;;;;;;11.43;4.60;;;;;;;-143.98;100.00;68091.63;5006361;28;20059;-84
2021/06/09 07:51:05;;;;;;;8.55;3.20;;;;;;;-143.98;100.00;68091.63;5024571;28;20117;-83
2021/06/09 07:53:33;;;;;;;1.83;1.40;;;;;;;-143.98;100.00;68091.63;5012621;28;20125;-84
2021/06/09 07:56:10;;;;;;;5.30;1.63;;;;;;;-143.98;100.00;68091.63;5018785;28;20038;-83
2021/06/09 07:58:37;;;;;;;2.47;1.00;;;;;;;-143.98;100.00;68091.63;5028450;28;20339;-84
2021/06/09 08:01:04;;;;;;;4.63;1.33;;;;;;;-143.98;100.00;68091.63;5038725;28;20215;-85
2021/06/09 08:03:43;;;;;;;1.65;1.10;;;;;;;-143.98;100.00;68091.63;5018498;28;20270;-84
2021/06/09 08:06:10;;;;;;;3.78;1.40;;;;;;;-143.98;100.00;68091.63;5005553;28;20119;-85
2021/06/09 08:08:41;;;;;;;6.07;1.25;;;;;;;-143.98;100.00;68091.63;5005873;28;20060;-84
2021/06/09 08:11:30;;;;;;;5.95;1.40;;;;;;;-143.98;100.00;68091.63;5023031;28;20111;-84
2021/06/09 08:13:58;;;;;;;1.73;1.00;;;;;;;-143.98;100.00;68091.63;5019215;28;20049;-83
2021/06/09 08:16:27;;;;;;;6.15;1.13;;;;;;;-143.98;100.00;68091.63;5016710;28;20053;-84
2021/06/09 08:18:57;;;;;;;1.95;1.25;;;;;;;-143.98;100.00;68091.63;5018688;28;20161;-83
2021/06/09 08:21:25;;;;;;;3.70;1.30;;;;;;;-143.98;100.00;68091.63;5000985;28;20055;-82
2021/06/09 08:23:54;;;;;;;7.72;0.88;;;;;;;-143.98;100.00;68091.63;5020471;28;20068;-83
2021/06/09 08:26:26;;;;;;;4.00;1.30;;;;;;;-143.98;100.00;68091.63;5056550;28;20478;-83
2021/06/09 08:28:55;;;;;;;3.03;1.25;;;;;;;-143.98;100.00;68091.63;5036324;28;20053;-83
2021/06/09 08:31:25;;;;;;;4.78;1.20;;;;;;;-143.98;100.00;68091.63;5035824;28;20457;-83
2021/06/09 08:33:55;;;;;;;2.90;1.15;;;;;;;-143.98;100.00;68091.63;5020182;28;20214;-83
2021/06/09 08:36:23;;;;;;;3.72;1.25;;;;;;;-143.98;100.00;68091.63;5040232;28;20116;-84
2021/06/09 08:39:04;;;;;;;2.90;1.10;;;;;;;-143.98;100.00;68091.63;5025413;28;20090;-85
2021/06/09 08:41:39;;;;;;;1.73;0.95;;;;;;;-143.98;100.00;68091.63;5026976;28;20183;-85
2021/06/09 08:44:07;;;;;;;1.43;1.00;;;;;;;-143.98;100.00;68091.63;5027106;28;20059;-87
2021/06/09 08:46:36;;;;;;;3.38;1.20;;;;;;;-143.98;100.00;68091.63;5058237;28;20357;-85
2021/06/09 08:49:04;;;;;;;5.80;1.20;;;;;;;-143.98;100.00;68091.63;5039392;28;20052;-84
2021/06/09 08:51:35;;;;;;;2.22;1.05;;;;;;;-143.98;100.00;68091.63;5038440;28;20064;-86
2021/06/09 08:54:04;;;;;;;2.20;1.38;;;;;;;-143.98;100.00;68091.63;5019711;28;20061;-85
2021/06/09 08:56:32;;;;;;;3.30;1.15;;;;;;;-143.98;100.00;68091.63;5021743;28;20049;-83
2021/06/09 08:58:59;;;;;;;1.73;1.20;;;;;;;-143.98;100.00;68091.63;5019068;28;20033;-85
2021/06/09 09:01:31;;;;;;;3.25;1.30;;;;;;;-143.98;100.00;68091.63;5025516;28;20176;-83
2021/06/09 09:04:01;;;;;;;1.60;1.20;;;;;;;-143.98;100.00;68091.63;5042247;28;20072;-85
2021/06/09 09:06:37;;;;;;;3.42;1.42;;;;;;;-143.98;100.00;68091.63;5041003;28;20057;-84
2021/06/09 09:09:04;;;;;;;2.85;1.45;;;;;;;-143.98;100.00;68091.63;5022907;28;20419;-84
2021/06/09 09:11:32;;;;;;;3.83;1.20;;;;;;;-143.98;100.00;68091.63;5037559;28;20049;-84
2021/06/09 09:13:59;;;;;;;2.65;1.38;;;;;;;-143.98;100.00;68091.63;5041354;28;20045;-85
2021/06/09 09:17:09;;;;;;;3.63;1.40;;;;;;;-143.98;100.00;68091.63;5019938;28;20060;-85
2021/06/09 09:19:42;;;;;;;2.45;1.50;;;;;;;-143.98;100.00;68091.63;5037823;28;20053;-84
2021/06/09 09:22:32;;;;;;;2.78;1.40;;;;;;;-143.98;100.00;68091.63;5023415;28;20045;-85
2021/06/09 09:25:27;;;;;;;3.33;1.70;;;;;;;-143.98;100.00;68091.63;5031748;28;20394;-85
2021/06/09 09:27:57;;;;;;;18.53;2.17;;;;;;;-143.98;100.00;68091.63;5038724;28;20334;-85
2021/06/09 09:30:27;;;;;;;3.05;1.15;;;;;;;-143.98;100.00;68091.63;5041340;28;20096;-84
2021/06/09 09:33:08;;;;;;;5.05;2.08;;;;;;;-143.98;100.00;68091.63;5039741;28;20084;-85
2021/06/09 09:35:40;;;;;;;1.92;1.00;;;;;;;-143.98;100.00;68091.63;5036652;28;20322;-83
2021/06/09 09:38:27;;;;;;;1.40;1.10;;;;;;;-143.98;100.00;68091.63;5020609;28;20057;-84
2021/06/09 09:41:12;;;;;;;2.17;1.33;;;;;;;-143.98;100.00;68091.63;5033831;28;20057;-83
2021/06/09 09:43:59;;;;;;;2.45;0.88;;;;;;;-143.98;100.00;68091.63;5018868;28;20057;-84
2021/06/09 09:46:50;;;;;;;2.17;1.20;;;;;;;-143.98;100.00;68091.63;5019108;28;20049;-84
2021/06/09 09:49:19;;;;;;;3.10;1.13;;;;;;;-143.98;100.00;68091.63;5036814;28;20049;-84
2021/06/09 09:52:11;;;;;;;4.95;1.40;;;;;;;-143.98;100.00;68091.63;5035883;28;20053;-84
2021/06/09 09:54:48;;;;;;;5.05;1.02;;;;;;;-143.98;100.00;68091.63;5035284;28;20049;-84
2021/06/09 09:57:15;;;;;;;3.75;1.23;;;;;;;-143.98;100.00;68091.63;5021332;28;20045;-84
2021/06/09 09:59:54;;;;;;;1.33;1.02;;;;;;;-143.98;100.00;68091.63;5019435;28;20159;-84
2021/06/09 10:02:21;;;;;;;6.03;1.25;;;;;;;-143.98;100.00;68091.63;5020249;28;20400;-84
2021/06/09 10:04:58;;;;;;;3.65;1.23;;;;;;;-143.98;100.00;68091.63;5038853;28;20045;-85
2021/06/09 10:07:34;;;;;;;4.65;1.30;;;;;;;-143.98;100.00;68091.63;5038962;28;20065;-84
2021/06/09 10:10:01;;;;;;;2.67;1.08;;;;;;;-143.98;100.00;68091.63;5022419;28;20211;-85
2021/06/09 10:12:29;;;;;;;4.70;1.20;;;;;;;-143.98;100.00;68091.63;5039889;28;20052;-86
2021/06/09 10:14:58;;;;;;;3.80;1.20;;;;;;;-143.98;100.00;68091.63;5021929;28;20053;-84
2021/06/09 10:17:28;;;;;;;2.42;1.45;;;;;;;-143.98;100.00;68091.63;5023762;28;20046;-88
2021/06/09 10:20:00;;;;;;;2.75;1.35;;;;;;;-143.98;100.00;68091.63;5036796;28;20583;-84
2021/06/09 10:22:34;;;;;;;5.10;1.52;;;;;;;-143.98;100.00;68091.63;5023485;28;20049;-85
2021/06/09 10:25:28;;;;;;;3.13;1.27;;;;;;;-143.98;100.00;68091.63;5037054;28;20136;-84
2021/06/09 10:28:13;;;;;;;1.50;1.17;;;;;;;-143.98;100.00;68091.63;5003039;28;20427;-84
2021/06/09 10:30:43;;;;;;;3.58;1.60;;;;;;;-143.98;100.00;68091.63;5013184;28;20050;-84
2021/06/09 10:33:11;;;;;;;2.55;1.20;;;;;;;-143.98;100.00;68091.63;5014892;28;20046;-85
2021/06/09 10:35:50;;;;;;;2.75;1.48;;;;;;;-143.98;100.00;68091.63;4996672;28;20049;-85
2021/06/09 10:38:19;;;;;;;3.40;1.30;;;;;;;-143.98;100.00;68091.63;5014969;28;20053;-85
2021/06/09 10:40:53;;;;;;;2.28;1.10;;;;;;;-143.98;100.00;68091.63;4999349;28;20052;-85
2021/06/09 10:43:27;;;;;;;3.08;1.63;;;;;;;-143.98;100.00;68091.63;5013299;28;20050;-85
2021/06/09 10:45:54;;;;;;;5.30;1.40;;;;;;;-143.98;100.00;68091.63;4996568;28;20128;-85
2021/06/09 10:48:23;;;;;;;3.10;0.95;;;;;;;-143.98;100.00;68091.63;5014347;28;20363;-83
2021/06/09 10:50:53;;;;;;;7.15;1.90;;;;;;;-143.98;100.00;68091.63;5015256;28;20050;-85
2021/06/09 10:53:20;;;;;;;9.55;2.53;;;;;;;-143.98;100.00;68091.63;5012624;28;20045;-84
2021/06/09 10:55:47;;;;;;;5.15;1.88;;;;;;;-143.98;100.00;68091.63;5035454;28;20050;-84
2021/06/09 10:58:26;;;;;;;4.03;1.73;;;;;;;-143.98;100.00;68091.63;5031438;28;20060;-84
2021/06/09 11:00:57;;;;;;;4.28;1.50;;;;;;;-143.98;100.00;68091.63;5003190;28;20050;-84
2021/06/09 11:03:26;;;;;;;1.85;1.17;;;;;;;-143.98;100.00;68091.63;5019746;28;20347;-84
2021/06/09 11:05:53;;;;;;;6.38;1.35;;;;;;;-143.98;100.00;68091.63;5019454;28;20084;-84
2021/06/09 11:08:43;;;;;;;7.60;1.60;;;;;;;-143.98;100.00;68091.63;5056372;28;20049;-84
2021/06/09 11:11:19;;;;;;;3.67;1.55;;;;;;;-143.98;100.00;68091.63;5030580;28;20044;-87
2021/06/09 11:13:47;;;;;;;3.60;1.15;;;;;;;-143.98;100.00;68091.63;5027481;28;20075;-87
2021/06/09 11:16:25;;;;;;;1.90;1.40;;;;;;;-143.98;100.00;68091.63;5068535;28;20214;-87
2021/06/09 11:18:57;;;;;;;4.88;1.90;;;;;;;-143.98;100.00;68091.63;5038616;28;20059;-84
2021/06/09 11:21:40;;;;;;;3.58;1.52;;;;;;;-143.98;100.00;68091.63;5039619;28;20033;-84
2021/06/09 11:24:15;;;;;;;10.48;7.57;;;;;;;-143.98;100.00;68091.63;5028412;28;20111;-84
2021/06/09 11:26:43;;;;;;;2.47;1.80;;;;;;;-143.98;100.00;68091.63;5024880;28;20057;-84
2021/06/09 11:29:38;;;;;;;6.65;1.60;;;;;;;-143.98;100.00;68091.63;5040184;28;20195;-86
2021/06/09 11:32:18;;;;;;;2.08;1.55;;;;;;;-143.98;100.00;68091.63;5042340;28;20045;-87